Time;durP1;ratioP1;P1;durP2;ratioP2;P2;SDS_P1;SDS_P2;PMS_P1;PMS_P2;Temp;Humidity;BMP_temperature;BMP_pressure;BME280_temperature;BME280_humidity;BME280_pressure;Samples;Min_cycle;Max_cycle;Signal;HPM_P1;HPM_P2
2022/11/22 00:01:43;;;;;;;44.03;18.60;;;;;;;;;;4966279;28;20357;-72
2022/11/22 00:04:09;;;;;;;38.75;18.02;;;;;;;;;;4963796;28;20162;-73
2022/11/22 00:06:35;;;;;;;34.45;17.80;;;;;;;;;;4966191;28;20496;-72
2022/11/22 00:09:02;;;;;;;37.05;17.58;;;;;;;;;;4964695;28;20031;-73
2022/11/22 00:11:28;;;;;;;38.20;17.85;;;;;;;;;;4947039;28;20433;-72
2022/11/22 00:13:54;;;;;;;42.63;17.95;;;;;;;;;;4946045;28;20137;-73
2022/11/22 00:16:20;;;;;;;37.97;18.35;;;;;;;;;;4968385;28;20113;-73
2022/11/22 00:18:46;;;;;;;35.42;17.30;;;;;;;;;;4963601;28;20034;-73
2022/11/22 00:21:12;;;;;;;39.67;18.17;;;;;;;;;;4967543;28;20407;-72
2022/11/22 00:23:38;;;;;;;35.28;18.75;;;;;;;;;;4935844;28;20063;-72
2022/11/22 00:26:05;;;;;;;40.25;19.77;;;;;;;;;;4927875;29;20126;-72
2022/11/22 00:28:31;;;;;;;43.50;19.75;;;;;;;;;;4928057;29;20116;-72
2022/11/22 00:30:58;;;;;;;44.75;19.17;;;;;;;;;;4924975;29;20378;-72
2022/11/22 00:33:23;;;;;;;44.17;19.85;;;;;;;;;;4927224;29;20111;-72
2022/11/22 00:35:49;;;;;;;37.03;18.05;;;;;;;;;;4926417;29;20622;-73
2022/11/22 00:38:16;;;;;;;44.83;19.38;;;;;;;;;;4928209;29;20036;-72
2022/11/22 00:40:42;;;;;;;55.05;20.40;;;;;;;;;;4926512;29;20059;-72
2022/11/22 00:43:08;;;;;;;44.72;18.75;;;;;;;;;;4930640;28;20453;-72
2022/11/22 00:45:34;;;;;;;41.53;19.40;;;;;;;;;;4927466;29;20047;-72
2022/11/22 00:48:00;;;;;;;37.15;19.63;;;;;;;;;;4922119;29;20130;-72
2022/11/22 00:50:26;;;;;;;44.78;20.45;;;;;;;;;;4926358;29;20158;-72
2022/11/22 00:52:52;;;;;;;43.20;19.83;;;;;;;;;;4925397;29;20074;-72
2022/11/22 00:55:18;;;;;;;44.85;20.98;;;;;;;;;;4927855;29;20505;-74
2022/11/22 00:57:44;;;;;;;45.33;20.42;;;;;;;;;;4942207;28;20449;-72
2022/11/22 01:00:11;;;;;;;52.20;22.90;;;;;;;;;;4924754;29;20055;-72
2022/11/22 01:02:37;;;;;;;43.08;21.08;;;;;;;;;;4928520;29;20328;-73
2022/11/22 01:05:03;;;;;;;41.38;20.55;;;;;;;;;;4925779;29;20114;-71
2022/11/22 01:07:29;;;;;;;40.28;20.63;;;;;;;;;;4942329;28;20172;-72
2022/11/22 01:09:55;;;;;;;43.63;21.75;;;;;;;;;;4926058;29;20095;-73
2022/11/22 01:12:21;;;;;;;41.58;20.83;;;;;;;;;;4930621;28;20373;-72
2022/11/22 01:14:47;;;;;;;54.45;22.20;;;;;;;;;;4929819;28;20123;-72
2022/11/22 01:17:13;;;;;;;58.63;21.48;;;;;;;;;;4929415;29;20032;-72
2022/11/22 01:19:39;;;;;;;46.83;21.70;;;;;;;;;;4929706;29;20034;-73
2022/11/22 01:22:05;;;;;;;40.97;21.42;;;;;;;;;;4932214;29;20106;-72
2022/11/22 01:24:31;;;;;;;51.22;21.20;;;;;;;;;;4943931;28;20051;-73
2022/11/22 01:26:57;;;;;;;48.72;21.08;;;;;;;;;;4948289;28;20074;-72
2022/11/22 01:29:23;;;;;;;50.83;22.20;;;;;;;;;;4952735;28;20035;-72
2022/11/22 01:31:49;;;;;;;48.33;21.50;;;;;;;;;;4960752;28;20037;-72
2022/11/22 01:34:15;;;;;;;39.88;20.65;;;;;;;;;;4950372;28;20420;-73
2022/11/22 01:36:41;;;;;;;50.85;22.58;;;;;;;;;;4950000;28;20035;-71
2022/11/22 01:39:08;;;;;;;39.03;19.73;;;;;;;;;;4945414;28;20032;-73
2022/11/22 01:41:34;;;;;;;53.95;19.58;;;;;;;;;;4951762;28;20448;-71
2022/11/22 01:44:36;;;;;;;48.40;19.90;;;;;;;;;;4963621;28;20032;-71
2022/11/22 01:47:11;;;;;;;43.45;19.83;;;;;;;;;;4907687;29;20524;-73
2022/11/22 01:49:40;;;;;;;51.10;20.02;;;;;;;;;;4940935;28;20039;-73
2022/11/22 01:52:13;;;;;;;45.88;19.27;;;;;;;;;;4944401;28;20027;-73
2022/11/22 01:54:40;;;;;;;39.75;17.65;;;;;;;;;;4946378;28;20067;-72
2022/11/22 01:57:10;;;;;;;47.67;17.98;;;;;;;;;;4960435;28;20281;-72
2022/11/22 01:59:37;;;;;;;41.90;17.52;;;;;;;;;;4947773;28;20019;-73
2022/11/22 02:02:03;;;;;;;44.55;18.48;;;;;;;;;;4946069;28;20123;-73
2022/11/22 02:04:30;;;;;;;43.55;17.67;;;;;;;;;;4950672;28;20031;-72
2022/11/22 02:07:02;;;;;;;40.60;18.00;;;;;;;;;;4949983;28;20045;-72
2022/11/22 02:09:29;;;;;;;45.22;15.93;;;;;;;;;;4948844;28;20030;-72
2022/11/22 02:11:56;;;;;;;73.70;18.58;;;;;;;;;;4950734;28;20159;-72
2022/11/22 02:14:24;;;;;;;40.30;16.45;;;;;;;;;;4946629;28;20050;-72
2022/11/22 02:16:50;;;;;;;50.83;16.02;;;;;;;;;;4948750;28;20031;-72
2022/11/22 02:19:26;;;;;;;38.50;15.10;;;;;;;;;;4957178;28;20030;-72
2022/11/22 02:21:55;;;;;;;38.28;15.25;;;;;;;;;;4937298;28;20114;-72
2022/11/22 02:24:25;;;;;;;35.70;14.40;;;;;;;;;;4927441;28;20401;-72
2022/11/22 02:26:51;;;;;;;37.25;13.23;;;;;;;;;;4924348;29;20479;-73
2022/11/22 02:29:17;;;;;;;28.73;12.45;;;;;;;;;;4929237;29;20024;-73
2022/11/22 02:31:45;;;;;;;35.25;11.65;;;;;;;;;;4927739;29;20035;-72
2022/11/22 02:34:12;;;;;;;38.60;11.57;;;;;;;;;;4930484;29;20027;-71
2022/11/22 02:36:41;;;;;;;36.03;10.73;;;;;;;;;;4928427;29;20032;-73
2022/11/22 02:39:08;;;;;;;34.03;10.27;;;;;;;;;;4929500;29;20065;-72
2022/11/22 02:41:34;;;;;;;34.25;9.27;;;;;;;;;;4929638;29;20086;-72
2022/11/22 02:44:00;;;;;;;35.75;8.43;;;;;;;;;;4930697;29;20032;-74
2022/11/22 02:46:26;;;;;;;35.60;9.00;;;;;;;;;;4928673;29;20950;-75
2022/11/22 02:48:52;;;;;;;37.35;9.30;;;;;;;;;;4928759;29;20158;-75
2022/11/22 02:51:19;;;;;;;29.20;8.70;;;;;;;;;;4938290;28;20442;-75
2022/11/22 02:53:48;;;;;;;38.70;8.10;;;;;;;;;;4927851;29;20051;-75
2022/11/22 02:56:15;;;;;;;41.53;8.88;;;;;;;;;;4929375;29;20023;-74
2022/11/22 02:58:41;;;;;;;33.65;8.55;;;;;;;;;;4926738;29;20046;-75
2022/11/22 03:01:07;;;;;;;35.85;8.48;;;;;;;;;;4929303;29;20039;-74
2022/11/22 03:03:33;;;;;;;35.95;8.00;;;;;;;;;;4941626;28;20028;-75
2022/11/22 03:06:01;;;;;;;27.90;7.43;;;;;;;;;;4945609;28;20082;-74
2022/11/22 03:08:27;;;;;;;36.22;7.53;;;;;;;;;;4931640;29;20592;-74
2022/11/22 03:10:53;;;;;;;29.75;7.03;;;;;;;;;;4945124;28;20389;-72
2022/11/22 03:13:19;;;;;;;35.22;6.60;;;;;;;;;;4930575;29;20126;-72
2022/11/22 03:15:48;;;;;;;29.92;6.63;;;;;;;;;;4924006;29;20106;-73
2022/11/22 03:18:14;;;;;;;20.52;5.93;;;;;;;;;;4927736;29;20390;-74
2022/11/22 03:20:40;;;;;;;29.67;6.13;;;;;;;;;;4925684;29;20177;-75
2022/11/22 03:23:06;;;;;;;24.52;6.25;;;;;;;;;;4925972;29;20480;-73
2022/11/22 03:25:32;;;;;;;31.75;5.93;;;;;;;;;;4929523;29;20067;-73
2022/11/22 03:27:58;;;;;;;33.80;6.10;;;;;;;;;;4926361;29;20039;-73
2022/11/22 03:30:24;;;;;;;33.55;7.68;;;;;;;;;;4925780;29;20039;-73
2022/11/22 03:32:50;;;;;;;26.77;6.00;;;;;;;;;;4925396;29;20035;-74
2022/11/22 03:35:16;;;;;;;30.23;6.30;;;;;;;;;;4929212;29;20032;-74
2022/11/22 03:37:42;;;;;;;40.50;7.22;;;;;;;;;;4926270;29;20044;-72
2022/11/22 03:40:08;;;;;;;23.42;4.88;;;;;;;;;;4927073;29;20522;-73
2022/11/22 03:42:34;;;;;;;32.22;5.82;;;;;;;;;;4929048;29;20035;-72
2022/11/22 03:45:00;;;;;;;30.40;5.47;;;;;;;;;;4926756;29;20406;-74
2022/11/22 03:47:26;;;;;;;25.48;4.78;;;;;;;;;;4927051;29;20039;-75
2022/11/22 03:49:53;;;;;;;32.20;6.32;;;;;;;;;;4927284;29;20539;-74
2022/11/22 03:52:19;;;;;;;31.38;6.25;;;;;;;;;;4938645;28;20522;-74
2022/11/22 03:54:45;;;;;;;30.45;5.53;;;;;;;;;;4943092;28;20036;-73
2022/11/22 03:57:11;;;;;;;31.40;4.95;;;;;;;;;;4929592;29;20032;-74
2022/11/22 03:59:37;;;;;;;23.48;5.32;;;;;;;;;;4926140;29;20033;-74
2022/11/22 04:02:03;;;;;;;28.70;6.18;;;;;;;;;;4927155;29;20067;-75
2022/11/22 04:04:29;;;;;;;32.08;5.13;;;;;;;;;;4928324;29;20398;-74
2022/11/22 04:06:55;;;;;;;28.27;4.85;;;;;;;;;;4927767;29;20497;-72
2022/11/22 04:09:21;;;;;;;27.95;5.28;;;;;;;;;;4926737;29;20168;-75
2022/11/22 04:11:47;;;;;;;25.58;5.15;;;;;;;;;;4928155;29;20140;-72
2022/11/22 04:16:57;;;;;;;30.35;5.03;;;;;;;;;;4928315;29;20051;-74
2022/11/22 04:19:23;;;;;;;24.15;5.05;;;;;;;;;;4926688;29;20028;-75
2022/11/22 04:21:49;;;;;;;26.35;4.82;;;;;;;;;;4925597;29;20032;-74
2022/11/22 04:27:02;;;;;;;22.10;4.65;;;;;;;;;;4948518;28;20106;-75
2022/11/22 04:29:28;;;;;;;41.10;6.43;;;;;;;;;;4948385;28;20058;-74
2022/11/22 04:34:39;;;;;;;28.23;5.28;;;;;;;;;;4946183;28;20425;-73
2022/11/22 04:37:05;;;;;;;27.10;4.53;;;;;;;;;;4953005;28;20046;-73
2022/11/22 04:39:31;;;;;;;30.65;5.15;;;;;;;;;;4946242;28;20027;-74
2022/11/22 04:44:42;;;;;;;25.05;4.70;;;;;;;;;;4947370;28;20042;-74
2022/11/22 04:47:09;;;;;;;33.03;5.10;;;;;;;;;;4953739;28;20035;-73
2022/11/22 04:49:35;;;;;;;22.50;3.92;;;;;;;;;;4946080;28;20031;-73
2022/11/22 04:54:46;;;;;;;25.05;4.72;;;;;;;;;;4946810;28;20059;-73
2022/11/22 04:57:12;;;;;;;26.70;4.43;;;;;;;;;;4952576;28;20102;-73
2022/11/22 04:59:38;;;;;;;25.33;5.88;;;;;;;;;;4953947;28;20047;-73
2022/11/22 05:02:04;;;;;;;29.13;4.47;;;;;;;;;;4949878;28;20034;-74
2022/11/22 05:04:30;;;;;;;19.90;4.45;;;;;;;;;;4935096;28;20031;-72
2022/11/22 05:06:57;;;;;;;27.38;4.63;;;;;;;;;;4948493;28;20042;-73
2022/11/22 05:09:24;;;;;;;25.05;5.32;;;;;;;;;;4952594;28;20381;-72
2022/11/22 05:11:50;;;;;;;33.72;5.68;;;;;;;;;;4951980;28;20093;-73
2022/11/22 05:14:16;;;;;;;28.92;5.20;;;;;;;;;;4951118;28;20110;-74
2022/11/22 05:16:42;;;;;;;25.65;5.03;;;;;;;;;;4949768;28;20130;-73
2022/11/22 05:19:08;;;;;;;22.27;3.92;;;;;;;;;;4946643;28;20548;-73
2022/11/22 05:21:36;;;;;;;21.13;3.92;;;;;;;;;;4951665;28;20067;-73
2022/11/22 05:24:03;;;;;;;20.95;4.57;;;;;;;;;;4959128;28;20054;-74
2022/11/22 05:26:31;;;;;;;25.48;4.40;;;;;;;;;;4968469;28;20027;-73
2022/11/22 05:28:58;;;;;;;24.85;5.30;;;;;;;;;;4968547;28;20440;-73
2022/11/22 05:31:26;;;;;;;15.73;3.47;;;;;;;;;;4972552;28;20101;-73
2022/11/22 05:33:52;;;;;;;20.13;4.63;;;;;;;;;;4969498;28;20072;-73
2022/11/22 05:36:19;;;;;;;27.48;4.75;;;;;;;;;;4973585;28;20030;-73
2022/11/22 05:38:45;;;;;;;31.75;4.20;;;;;;;;;;4964898;28;20050;-73
2022/11/22 05:41:12;;;;;;;30.95;4.82;;;;;;;;;;4969157;28;20023;-72
2022/11/22 05:43:38;;;;;;;27.30;5.20;;;;;;;;;;4969771;28;20412;-73
2022/11/22 05:46:07;;;;;;;24.80;4.25;;;;;;;;;;4968824;28;20072;-73
2022/11/22 05:48:33;;;;;;;21.20;4.82;;;;;;;;;;4966075;28;20033;-72
2022/11/22 05:51:03;;;;;;;20.77;3.30;;;;;;;;;;4971985;28;20464;-74
2022/11/22 05:53:29;;;;;;;24.00;5.20;;;;;;;;;;4967796;28;20432;-73
2022/11/22 05:55:55;;;;;;;19.15;4.05;;;;;;;;;;4964127;28;20141;-73
2022/11/22 05:58:23;;;;;;;29.42;5.63;;;;;;;;;;4969167;28;20031;-73
2022/11/22 06:00:49;;;;;;;20.35;4.47;;;;;;;;;;4965040;28;20034;-73
2022/11/22 06:03:15;;;;;;;21.63;5.50;;;;;;;;;;4965589;28;20054;-73
2022/11/22 06:05:41;;;;;;;24.55;5.90;;;;;;;;;;4967821;28;20085;-73
2022/11/22 06:08:07;;;;;;;19.25;5.90;;;;;;;;;;4971957;28;20444;-73
2022/11/22 06:10:36;;;;;;;20.83;6.57;;;;;;;;;;4969158;28;20041;-74
2022/11/22 06:13:02;;;;;;;23.38;7.22;;;;;;;;;;4959228;28;20035;-73
2022/11/22 06:15:29;;;;;;;18.02;7.47;;;;;;;;;;4969937;28;20038;-74
2022/11/22 06:17:55;;;;;;;22.77;7.07;;;;;;;;;;4969160;28;20113;-72
2022/11/22 06:20:21;;;;;;;20.90;7.40;;;;;;;;;;4965544;28;20492;-73
2022/11/22 06:22:47;;;;;;;26.90;6.28;;;;;;;;;;4968690;28;20185;-72
2022/11/22 06:25:13;;;;;;;25.23;7.00;;;;;;;;;;4966364;28;20073;-73
2022/11/22 06:27:39;;;;;;;25.33;6.18;;;;;;;;;;4948653;28;20037;-73
2022/11/22 06:30:06;;;;;;;21.60;6.53;;;;;;;;;;4967579;28;20035;-73
2022/11/22 06:32:35;;;;;;;20.35;6.75;;;;;;;;;;4969054;28;20027;-74
2022/11/22 06:35:02;;;;;;;20.35;6.47;;;;;;;;;;4967567;28;20049;-75
2022/11/22 06:37:28;;;;;;;18.88;7.10;;;;;;;;;;4968878;28;20030;-74
2022/11/22 06:39:54;;;;;;;17.73;6.90;;;;;;;;;;4969650;28;20027;-74
2022/11/22 06:42:20;;;;;;;24.98;6.60;;;;;;;;;;4964037;28;20065;-74
2022/11/22 06:44:46;;;;;;;21.40;6.05;;;;;;;;;;4970789;28;20019;-74
2022/11/22 06:47:12;;;;;;;22.98;6.45;;;;;;;;;;4970796;28;20142;-74
2022/11/22 06:49:38;;;;;;;23.83;7.75;;;;;;;;;;4943807;28;20444;-74
2022/11/22 06:52:04;;;;;;;20.60;7.35;;;;;;;;;;4962530;28;20078;-74
2022/11/22 06:54:30;;;;;;;29.13;8.75;;;;;;;;;;4964415;28;20125;-74
2022/11/22 06:56:56;;;;;;;22.65;7.80;;;;;;;;;;4964958;28;20046;-73
2022/11/22 06:59:22;;;;;;;21.73;8.18;;;;;;;;;;4965826;28;20038;-73
2022/11/22 07:01:48;;;;;;;21.02;7.13;;;;;;;;;;4965870;28;20039;-74
2022/11/22 07:04:14;;;;;;;32.20;8.35;;;;;;;;;;4965885;28;20062;-75
2022/11/22 07:06:40;;;;;;;28.70;8.50;;;;;;;;;;4966435;28;20067;-74
2022/11/22 07:09:07;;;;;;;21.98;6.95;;;;;;;;;;4962407;28;20126;-73
2022/11/22 07:11:34;;;;;;;19.13;6.75;;;;;;;;;;4972276;28;20035;-74
2022/11/22 07:14:01;;;;;;;16.85;7.03;;;;;;;;;;4965550;28;20106;-73
2022/11/22 07:16:28;;;;;;;21.95;7.10;;;;;;;;;;4957512;28;20639;-73
2022/11/22 07:18:54;;;;;;;27.98;7.13;;;;;;;;;;4954863;28;20038;-72
2022/11/22 07:21:25;;;;;;;21.48;7.38;;;;;;;;;;4953175;28;20052;-73
2022/11/22 07:23:52;;;;;;;19.73;7.88;;;;;;;;;;4957048;28;20047;-74
2022/11/22 07:26:19;;;;;;;20.90;6.40;;;;;;;;;;4942615;28;20476;-72
2022/11/22 07:28:45;;;;;;;16.38;6.38;;;;;;;;;;4955791;28;20046;-73
2022/11/22 07:31:12;;;;;;;20.20;6.68;;;;;;;;;;4942189;28;20045;-74
2022/11/22 07:33:38;;;;;;;17.60;6.40;;;;;;;;;;4959305;28;20067;-74
2022/11/22 07:36:05;;;;;;;20.45;6.30;;;;;;;;;;4956771;28;20471;-74
2022/11/22 07:38:32;;;;;;;23.92;6.32;;;;;;;;;;4936738;28;20042;-76
2022/11/22 07:40:58;;;;;;;14.88;5.53;;;;;;;;;;4957407;28;20034;-75
2022/11/22 07:43:24;;;;;;;17.08;5.72;;;;;;;;;;4960983;28;20544;-75
2022/11/22 07:45:50;;;;;;;21.05;6.40;;;;;;;;;;4956736;28;20261;-75
2022/11/22 07:48:16;;;;;;;25.45;6.05;;;;;;;;;;4958594;28;20027;-73
2022/11/22 07:50:42;;;;;;;17.33;5.00;;;;;;;;;;4960645;28;20399;-75
2022/11/22 07:53:09;;;;;;;23.10;6.95;;;;;;;;;;4960679;28;20058;-76
2022/11/22 07:55:35;;;;;;;22.45;5.93;;;;;;;;;;4957559;28;20033;-74
2022/11/22 07:58:02;;;;;;;17.23;5.22;;;;;;;;;;4941601;28;20594;-75
2022/11/22 08:00:28;;;;;;;20.48;4.93;;;;;;;;;;4953572;28;20570;-76
2022/11/22 08:02:54;;;;;;;19.90;5.85;;;;;;;;;;4959386;28;20027;-75
2022/11/22 08:05:20;;;;;;;15.30;5.25;;;;;;;;;;4959760;28;20039;-75
2022/11/22 08:07:50;;;;;;;20.52;6.47;;;;;;;;;;4944619;28;20042;-77
2022/11/22 08:10:16;;;;;;;25.23;6.30;;;;;;;;;;4960923;28;20159;-75
2022/11/22 08:12:43;;;;;;;20.45;6.70;;;;;;;;;;4926089;28;20043;-74
2022/11/22 08:15:09;;;;;;;15.60;5.65;;;;;;;;;;4951526;28;20039;-77
2022/11/22 08:17:37;;;;;;;14.82;5.70;;;;;;;;;;4945196;28;20507;-75
2022/11/22 08:20:03;;;;;;;14.68;5.70;;;;;;;;;;4961477;28;20027;-75
2022/11/22 08:22:29;;;;;;;13.38;5.35;;;;;;;;;;4963746;28;20129;-75
2022/11/22 08:24:56;;;;;;;17.48;5.25;;;;;;;;;;4963156;28;20586;-75
2022/11/22 08:27:23;;;;;;;12.98;5.38;;;;;;;;;;4965737;28;20111;-75
2022/11/22 08:29:49;;;;;;;19.02;5.22;;;;;;;;;;4963611;28;20035;-75
2022/11/22 08:32:15;;;;;;;17.83;5.55;;;;;;;;;;4945262;28;20146;-75
2022/11/22 08:34:41;;;;;;;18.83;5.38;;;;;;;;;;4965601;28;20512;-75
2022/11/22 08:37:07;;;;;;;20.83;5.18;;;;;;;;;;4966518;28;20350;-76
2022/11/22 08:39:33;;;;;;;14.07;5.15;;;;;;;;;;4945681;28;20039;-75
2022/11/22 08:41:59;;;;;;;16.58;5.55;;;;;;;;;;4926809;28;20134;-74
2022/11/22 08:44:25;;;;;;;18.52;5.18;;;;;;;;;;4963167;28;20128;-75
2022/11/22 08:46:51;;;;;;;16.48;5.28;;;;;;;;;;4960401;28;20030;-73
2022/11/22 08:49:17;;;;;;;20.42;5.90;;;;;;;;;;4946967;28;20035;-73
2022/11/22 08:51:46;;;;;;;19.75;5.55;;;;;;;;;;4950380;28;20037;-74
2022/11/22 08:54:12;;;;;;;16.98;6.03;;;;;;;;;;4966116;28;20038;-74
2022/11/22 08:56:38;;;;;;;16.67;6.28;;;;;;;;;;4967340;28;20023;-74
2022/11/22 08:59:04;;;;;;;12.73;4.93;;;;;;;;;;4960596;28;20085;-73
2022/11/22 09:01:31;;;;;;;16.30;6.25;;;;;;;;;;4964471;28;20492;-74
2022/11/22 09:03:57;;;;;;;13.75;5.57;;;;;;;;;;4961896;28;20035;-76
2022/11/22 09:06:23;;;;;;;15.55;5.22;;;;;;;;;;4965826;28;20078;-74
2022/11/22 09:08:49;;;;;;;14.65;5.55;;;;;;;;;;4964266;28;20073;-76
2022/11/22 09:11:16;;;;;;;14.55;4.95;;;;;;;;;;4960438;28;20125;-75
2022/11/22 09:13:43;;;;;;;10.93;4.60;;;;;;;;;;4945005;28;20122;-74
2022/11/22 09:16:13;;;;;;;15.10;4.70;;;;;;;;;;4955537;28;20253;-75
2022/11/22 09:18:39;;;;;;;16.47;5.37;;;;;;;;;;4966121;28;20059;-75
2022/11/22 09:21:07;;;;;;;16.80;5.13;;;;;;;;;;4965317;28;20298;-75
2022/11/22 09:23:34;;;;;;;14.75;5.55;;;;;;;;;;4966680;28;20089;-74
2022/11/22 09:26:10;;;;;;;13.65;5.28;;;;;;;;;;4965251;28;20515;-75
2022/11/22 09:28:37;;;;;;;14.85;5.53;;;;;;;;;;4966776;28;20481;-75
2022/11/22 09:31:04;;;;;;;17.80;5.30;;;;;;;;;;4964488;28;20042;-76
2022/11/22 09:33:31;;;;;;;16.95;6.97;;;;;;;;;;4945557;28;20081;-75
2022/11/22 09:36:03;;;;;;;17.15;6.60;;;;;;;;;;4966615;28;20085;-76
2022/11/22 09:38:30;;;;;;;18.77;5.10;;;;;;;;;;4963660;28;20042;-76
2022/11/22 09:40:57;;;;;;;16.42;4.60;;;;;;;;;;4962825;28;20548;-76
2022/11/22 09:43:29;;;;;;;14.35;5.00;;;;;;;;;;4969306;28;20038;-75
2022/11/22 09:46:16;;;;;;;15.02;4.45;;;;;;;;;;4967389;28;20770;-76
2022/11/22 09:48:58;;;;;;;10.25;4.90;;;;;;;;;;4954376;28;20170;-75
2022/11/22 09:51:27;;;;;;;11.55;5.28;;;;;;;;;;4975074;28;20034;-75
2022/11/22 09:53:56;;;;;;;15.80;5.60;;;;;;;;;;4962538;28;20049;-74
2022/11/22 09:56:25;;;;;;;13.90;4.20;;;;;;;;;;4966507;28;20034;-75
2022/11/22 09:59:14;;;;;;;17.60;5.78;;;;;;;;;;4961497;28;20090;-72
2022/11/22 10:01:42;;;;;;;14.93;4.32;;;;;;;;;;4962107;28;20145;-75
2022/11/22 10:04:24;;;;;;;14.60;4.28;;;;;;;;;;4960897;28;21427;-76
2022/11/22 10:06:53;;;;;;;8.07;3.95;;;;;;;;;;4959420;28;20035;-75
2022/11/22 10:09:19;;;;;;;10.88;4.80;;;;;;;;;;4959667;28;20031;-76
2022/11/22 10:11:57;;;;;;;18.52;5.05;;;;;;;;;;4957528;28;20023;-75
2022/11/22 10:14:38;;;;;;;11.80;4.00;;;;;;;;;;4962690;28;20121;-74
2022/11/22 10:17:17;;;;;;;13.88;4.80;;;;;;;;;;4962746;28;20069;-75
2022/11/22 10:19:59;;;;;;;17.27;4.40;;;;;;;;;;4958840;28;20064;-75
2022/11/22 10:22:28;;;;;;;16.20;4.47;;;;;;;;;;4954641;28;20035;-74
2022/11/22 10:24:54;;;;;;;9.77;3.97;;;;;;;;;;4957023;28;20165;-74
2022/11/22 10:27:20;;;;;;;18.05;4.05;;;;;;;;;;4957303;28;20086;-74
2022/11/22 10:29:50;;;;;;;16.88;4.03;;;;;;;;;;4942883;28;20037;-74
2022/11/22 10:32:16;;;;;;;14.93;3.67;;;;;;;;;;4943480;28;20039;-76
2022/11/22 10:34:57;;;;;;;12.57;3.83;;;;;;;;;;4944063;28;20031;-75
2022/11/22 10:37:32;;;;;;;17.90;4.63;;;;;;;;;;4960111;28;20043;-75
2022/11/22 10:39:58;;;;;;;10.80;3.78;;;;;;;;;;4958641;28;20030;-73
2022/11/22 10:42:49;;;;;;;13.27;3.35;;;;;;;;;;4961500;28;20031;-74
2022/11/22 10:45:30;;;;;;;13.48;3.88;;;;;;;;;;4961009;28;20109;-74
2022/11/22 10:47:56;;;;;;;;;;;;;;;;;;4960908;28;20039;-75
2022/11/22 10:50:29;;;;;;;8.25;3.75;;;;;;;;;;4959872;28;20036;-73
2022/11/22 10:53:20;;;;;;;10.65;4.00;;;;;;;;;;4959302;28;20035;-75
2022/11/22 10:55:52;;;;;;;15.43;4.00;;;;;;;;;;4968850;28;20046;-73
2022/11/22 10:58:37;;;;;;;15.30;4.13;;;;;;;;;;4954015;28;20097;-74
2022/11/22 11:01:17;;;;;;;10.68;3.85;;;;;;;;;;4956015;28;20037;-74
2022/11/22 11:03:44;;;;;;;10.98;4.03;;;;;;;;;;4953208;28;20034;-74
2022/11/22 11:06:18;;;;;;;13.73;4.75;;;;;;;;;;4958653;28;20030;-74
2022/11/22 11:08:50;;;;;;;13.98;4.10;;;;;;;;;;4952276;28;20118;-74
2022/11/22 11:11:16;;;;;;;11.75;4.25;;;;;;;;;;4950839;28;20145;-73
2022/11/22 11:13:44;;;;;;;9.65;3.85;;;;;;;;;;4957138;28;20492;-74
2022/11/22 11:16:12;;;;;;;16.67;4.00;;;;;;;;;;4955822;28;20381;-74
2022/11/22 11:18:50;;;;;;;16.63;4.38;;;;;;;;;;4960397;28;20101;-75
2022/11/22 11:21:16;;;;;;;14.15;4.75;;;;;;;;;;4958398;28;20027;-74
2022/11/22 11:23:42;;;;;;;19.77;5.40;;;;;;;;;;4955793;28;20527;-75
2022/11/22 11:26:22;;;;;;;12.77;4.40;;;;;;;;;;4958762;28;20158;-74
2022/11/22 11:28:49;;;;;;;14.85;4.93;;;;;;;;;;4955367;28;21550;-73
2022/11/22 11:31:17;;;;;;;15.23;4.28;;;;;;;;;;4953988;28;20043;-75
2022/11/22 11:33:44;;;;;;;11.07;4.50;;;;;;;;;;4952528;28;20035;-75
2022/11/22 11:36:23;;;;;;;14.32;5.00;;;;;;;;;;4952190;28;20042;-75
2022/11/22 11:38:54;;;;;;;9.80;4.22;;;;;;;;;;4953497;28;20061;-74
2022/11/22 11:41:30;;;;;;;13.05;4.30;;;;;;;;;;4940271;28;20027;-76
2022/11/22 11:44:00;;;;;;;13.38;5.40;;;;;;;;;;4952790;28;20738;-73
2022/11/22 11:46:27;;;;;;;11.23;3.97;;;;;;;;;;4949674;28;20469;-72
2022/11/22 11:48:54;;;;;;;15.13;4.38;;;;;;;;;;4955605;28;20035;-73
2022/11/22 11:51:20;;;;;;;11.50;4.57;;;;;;;;;;4954896;28;20555;-74
2022/11/22 11:53:51;;;;;;;15.80;5.00;;;;;;;;;;4953982;28;20026;-74
2022/11/22 11:56:18;;;;;;;15.25;4.40;;;;;;;;;;4956992;28;20104;-74
2022/11/22 11:58:50;;;;;;;11.43;4.32;;;;;;;;;;4955010;28;20054;-74
2022/11/22 12:01:20;;;;;;;13.70;5.32;;;;;;;;;;4956178;28;20031;-74
2022/11/22 12:04:04;;;;;;;16.17;4.65;;;;;;;;;;4953078;28;20031;-73
2022/11/22 12:06:31;;;;;;;14.13;4.38;;;;;;;;;;4956083;28;20038;-74
2022/11/22 12:08:58;;;;;;;10.38;4.20;;;;;;;;;;4957014;28;21111;-72
2022/11/22 12:11:30;;;;;;;13.80;4.63;;;;;;;;;;4958069;28;20041;-74
2022/11/22 12:14:00;;;;;;;9.10;3.60;;;;;;;;;;4956048;28;20235;-73
2022/11/22 12:16:46;;;;;;;10.40;3.45;;;;;;;;;;4957652;28;20174;-74
2022/11/22 12:19:15;;;;;;;11.45;4.05;;;;;;;;;;4937256;28;20429;-73
2022/11/22 12:21:54;;;;;;;9.27;3.40;;;;;;;;;;4954789;28;20066;-76
2022/11/22 12:24:23;;;;;;;9.82;4.15;;;;;;;;;;4951257;28;20051;-73
2022/11/22 12:26:49;;;;;;;9.30;3.92;;;;;;;;;;4956978;28;20504;-74
2022/11/22 12:29:15;;;;;;;6.85;3.03;;;;;;;;;;4953452;28;20038;-74
2022/11/22 12:31:41;;;;;;;8.32;3.42;;;;;;;;;;4959696;28;20477;-73
2022/11/22 12:34:18;;;;;;;9.68;3.25;;;;;;;;;;4940877;28;20089;-76
2022/11/22 12:36:50;;;;;;;8.02;3.00;;;;;;;;;;4957745;28;20093;-75
2022/11/22 12:39:24;;;;;;;5.18;2.83;;;;;;;;;;4952863;28;20391;-74
2022/11/22 12:41:53;;;;;;;11.32;2.72;;;;;;;;;;4956320;28;20031;-75
2022/11/22 12:44:20;;;;;;;6.05;2.70;;;;;;;;;;4956851;28;20135;-75
2022/11/22 12:46:50;;;;;;;5.57;2.60;;;;;;;;;;4955830;28;20102;-74
2022/11/22 12:49:16;;;;;;;6.85;2.58;;;;;;;;;;4953533;28;21956;-74
2022/11/22 12:51:46;;;;;;;8.40;2.80;;;;;;;;;;4955217;28;20129;-74
2022/11/22 12:54:17;;;;;;;5.88;2.70;;;;;;;;;;4952455;28;20066;-74
2022/11/22 12:56:49;;;;;;;7.82;2.72;;;;;;;;;;4954849;28;20114;-74
2022/11/22 12:59:34;;;;;;;6.93;2.40;;;;;;;;;;4957024;28;20051;-74
2022/11/22 13:02:00;;;;;;;6.60;2.65;;;;;;;;;;4952346;28;20035;-74
2022/11/22 13:04:40;;;;;;;6.50;2.90;;;;;;;;;;4963722;28;20114;-74
2022/11/22 13:07:27;;;;;;;5.38;2.25;;;;;;;;;;4956970;28;20053;-73
2022/11/22 13:09:58;;;;;;;3.97;2.20;;;;;;;;;;4938639;28;20066;-73
2022/11/22 13:12:35;;;;;;;11.68;2.72;;;;;;;;;;4961099;28;20035;-73
2022/11/22 13:15:01;;;;;;;7.10;2.55;;;;;;;;;;4954987;28;20037;-74
2022/11/22 13:17:32;;;;;;;6.25;2.58;;;;;;;;;;4958802;28;20034;-73
2022/11/22 13:19:58;;;;;;;;;;;;;;;;;;4961024;28;20480;-75
2022/11/22 13:22:43;;;;;;;11.63;3.25;;;;;;;;;;4962764;28;19917;-75
2022/11/22 13:25:27;;;;;;;4.72;2.53;;;;;;;;;;4960385;28;20065;-73
2022/11/22 13:27:57;;;;;;;5.72;2.42;;;;;;;;;;4961182;28;22175;-74
2022/11/22 13:30:25;;;;;;;6.82;2.42;;;;;;;;;;4956833;28;20046;-75
2022/11/22 13:32:52;;;;;;;6.70;2.30;;;;;;;;;;4962962;28;20046;-74
2022/11/22 13:35:38;;;;;;;4.68;2.00;;;;;;;;;;4963461;28;20484;-73
2022/11/22 13:38:06;;;;;;;8.82;2.13;;;;;;;;;;4970453;28;20143;-74
2022/11/22 13:40:34;;;;;;;3.75;2.20;;;;;;;;;;4964166;28;20038;-76
2022/11/22 13:43:15;;;;;;;5.40;2.17;;;;;;;;;;4962878;28;20031;-75
2022/11/22 13:45:40;;;;;;;;;;;;;;;;;;4964568;28;20023;-74
2022/11/22 13:48:09;;;;;;;9.05;3.08;;;;;;;;;;4960426;28;19918;-73
2022/11/22 13:50:43;;;;;;;3.97;1.85;;;;;;;;;;4963212;28;20524;-75
2022/11/22 13:53:18;;;;;;;7.22;1.85;;;;;;;;;;4946955;28;20075;-74
2022/11/22 13:55:44;;;;;;;7.22;2.25;;;;;;;;;;4967942;28;20514;-75
2022/11/22 13:58:39;;;;;;;6.68;2.13;;;;;;;;;;4968542;28;20035;-75
2022/11/22 14:01:24;;;;;;;5.13;2.05;;;;;;;;;;4951729;28;20053;-74
2022/11/22 14:03:50;;;;;;;3.33;1.80;;;;;;;;;;4949265;28;20235;-75
2022/11/22 14:06:23;;;;;;;7.15;2.28;;;;;;;;;;4967452;28;20344;-76
2022/11/22 14:09:09;;;;;;;4.75;2.03;;;;;;;;;;4963995;28;20165;-75
2022/11/22 14:11:43;;;;;;;5.35;2.80;;;;;;;;;;4961098;28;20118;-75
2022/11/22 14:14:12;;;;;;;3.50;1.80;;;;;;;;;;4960367;28;20408;-76
2022/11/22 14:16:47;;;;;;;4.55;2.10;;;;;;;;;;4958964;28;20035;-75
2022/11/22 14:19:35;;;;;;;5.60;1.88;;;;;;;;;;4964719;28;20242;-75
2022/11/22 14:22:10;;;;;;;7.47;2.70;;;;;;;;;;4959464;28;20027;-76
2022/11/22 14:24:42;;;;;;;5.60;2.25;;;;;;;;;;4960373;28;20054;-74
2022/11/22 14:27:27;;;;;;;5.20;1.92;;;;;;;;;;4960069;28;20645;-74
2022/11/22 14:30:14;;;;;;;5.80;2.97;;;;;;;;;;4965969;28;20031;-74
2022/11/22 14:32:40;;;;;;;5.00;2.15;;;;;;;;;;4956184;28;20034;-78
2022/11/22 14:35:06;;;;;;;6.10;2.17;;;;;;;;;;4963100;28;20102;-76
2022/11/22 14:37:42;;;;;;;11.38;3.35;;;;;;;;;;4963223;28;20034;-78
2022/11/22 14:40:09;;;;;;;5.60;2.78;;;;;;;;;;4974321;28;20059;-76
2022/11/22 14:42:35;;;;;;;5.15;3.10;;;;;;;;;;4967058;28;20108;-77
2022/11/22 14:45:15;;;;;;;8.98;4.45;;;;;;;;;;4965525;28;20038;-76
2022/11/22 14:47:41;;;;;;;23.55;10.43;;;;;;;;;;4946114;28;20034;-76
2022/11/22 14:50:09;;;;;;;18.90;8.82;;;;;;;;;;4966872;28;20050;-76
2022/11/22 14:52:35;;;;;;;3.72;2.40;;;;;;;;;;4967857;28;20031;-76
2022/11/22 14:55:07;;;;;;;6.85;3.53;;;;;;;;;;4965013;28;20082;-76